sensor_id;sensor_type;location;lat;lon;timestamp;P1;durP1;ratioP1;P2;durP2;ratioP2
38053;SDS011;23859;50.672;7.164;2023-04-15T00:01:26;9.52;;;3.60;;
38053;SDS011;23859;50.672;7.164;2023-04-15T00:03:54;7.30;;;3.45;;
38053;SDS011;23859;50.672;7.164;2023-04-15T00:06:20;8.27;;;3.60;;
38053;SDS011;23859;50.672;7.164;2023-04-15T00:08:47;8.60;;;3.63;;
38053;SDS011;23859;50.672;7.164;2023-04-15T00:11:14;4.47;;;3.33;;
38053;SDS011;23859;50.672;7.164;2023-04-15T00:13:40;7.03;;;3.13;;
38053;SDS011;23859;50.672;7.164;2023-04-15T00:16:08;8.30;;;2.97;;
38053;SDS011;23859;50.672;7.164;2023-04-15T00:18:34;5.68;;;3.13;;
38053;SDS011;23859;50.672;7.164;2023-04-15T00:21:01;10.55;;;3.97;;
38053;SDS011;23859;50.672;7.164;2023-04-15T00:23:28;6.13;;;3.30;;
38053;SDS011;23859;50.672;7.164;2023-04-15T00:25:54;6.03;;;2.83;;
38053;SDS011;23859;50.672;7.164;2023-04-15T00:28:21;8.15;;;2.92;;
38053;SDS011;23859;50.672;7.164;2023-04-15T00:30:47;6.88;;;3.42;;
38053;SDS011;23859;50.672;7.164;2023-04-15T00:33:13;9.35;;;3.38;;
38053;SDS011;23859;50.672;7.164;2023-04-15T00:35:40;5.00;;;2.70;;
38053;SDS011;23859;50.672;7.164;2023-04-15T00:38:06;7.03;;;2.92;;
38053;SDS011;23859;50.672;7.164;2023-04-15T00:40:32;9.38;;;3.38;;
38053;SDS011;23859;50.672;7.164;2023-04-15T00:42:59;5.38;;;3.35;;
38053;SDS011;23859;50.672;7.164;2023-04-15T00:45:25;8.48;;;3.17;;
38053;SDS011;23859;50.672;7.164;2023-04-15T00:47:52;7.20;;;3.35;;
38053;SDS011;23859;50.672;7.164;2023-04-15T00:50:19;5.82;;;2.75;;
38053;SDS011;23859;50.672;7.164;2023-04-15T00:52:45;7.32;;;3.60;;
38053;SDS011;23859;50.672;7.164;2023-04-15T00:55:11;13.32;;;3.30;;
38053;SDS011;23859;50.672;7.164;2023-04-15T00:57:38;10.38;;;4.28;;
38053;SDS011;23859;50.672;7.164;2023-04-15T01:00:04;9.82;;;4.78;;
38053;SDS011;23859;50.672;7.164;2023-04-15T01:02:35;8.18;;;3.65;;
38053;SDS011;23859;50.672;7.164;2023-04-15T01:05:03;6.93;;;3.95;;
38053;SDS011;23859;50.672;7.164;2023-04-15T01:07:29;12.75;;;4.32;;
38053;SDS011;23859;50.672;7.164;2023-04-15T01:09:56;8.30;;;3.75;;
38053;SDS011;23859;50.672;7.164;2023-04-15T01:12:22;9.38;;;4.30;;
38053;SDS011;23859;50.672;7.164;2023-04-15T01:14:50;10.52;;;4.85;;
38053;SDS011;23859;50.672;7.164;2023-04-15T01:17:17;8.63;;;4.82;;
38053;SDS011;23859;50.672;7.164;2023-04-15T01:19:43;16.05;;;5.55;;
38053;SDS011;23859;50.672;7.164;2023-04-15T01:22:09;13.15;;;5.20;;
38053;SDS011;23859;50.672;7.164;2023-04-15T01:24:36;10.80;;;4.43;;
38053;SDS011;23859;50.672;7.164;2023-04-15T01:27:03;9.32;;;3.47;;
38053;SDS011;23859;50.672;7.164;2023-04-15T01:29:30;7.95;;;3.88;;
38053;SDS011;23859;50.672;7.164;2023-04-15T01:31:57;9.57;;;4.15;;
38053;SDS011;23859;50.672;7.164;2023-04-15T01:34:23;7.15;;;2.97;;
38053;SDS011;23859;50.672;7.164;2023-04-15T01:36:49;8.43;;;3.63;;
38053;SDS011;23859;50.672;7.164;2023-04-15T01:39:15;15.65;;;4.55;;
38053;SDS011;23859;50.672;7.164;2023-04-15T01:41:41;7.97;;;4.10;;
38053;SDS011;23859;50.672;7.164;2023-04-15T01:44:08;6.13;;;2.95;;
38053;SDS011;23859;50.672;7.164;2023-04-15T01:46:34;8.50;;;3.30;;
38053;SDS011;23859;50.672;7.164;2023-04-15T01:49:00;7.38;;;3.58;;
38053;SDS011;23859;50.672;7.164;2023-04-15T01:51:26;11.30;;;3.40;;
38053;SDS011;23859;50.672;7.164;2023-04-15T01:53:52;8.45;;;3.47;;
38053;SDS011;23859;50.672;7.164;2023-04-15T01:56:20;8.23;;;3.53;;
38053;SDS011;23859;50.672;7.164;2023-04-15T01:58:48;6.78;;;3.00;;
38053;SDS011;23859;50.672;7.164;2023-04-15T02:01:14;5.75;;;2.88;;
38053;SDS011;23859;50.672;7.164;2023-04-15T02:03:43;5.75;;;2.97;;
38053;SDS011;23859;50.672;7.164;2023-04-15T02:06:10;7.72;;;3.38;;
38053;SDS011;23859;50.672;7.164;2023-04-15T02:08:36;8.35;;;3.63;;
38053;SDS011;23859;50.672;7.164;2023-04-15T02:11:03;9.48;;;3.63;;
38053;SDS011;23859;50.672;7.164;2023-04-15T02:13:29;8.65;;;3.80;;
38053;SDS011;23859;50.672;7.164;2023-04-15T02:15:55;9.40;;;3.70;;
38053;SDS011;23859;50.672;7.164;2023-04-15T02:18:21;8.30;;;3.42;;
38053;SDS011;23859;50.672;7.164;2023-04-15T02:20:47;7.28;;;3.78;;
38053;SDS011;23859;50.672;7.164;2023-04-15T02:23:16;8.35;;;3.30;;
38053;SDS011;23859;50.672;7.164;2023-04-15T02:25:42;8.20;;;3.78;;
38053;SDS011;23859;50.672;7.164;2023-04-15T02:28:08;6.50;;;3.72;;
38053;SDS011;23859;50.672;7.164;2023-04-15T02:30:34;9.48;;;3.85;;
38053;SDS011;23859;50.672;7.164;2023-04-15T02:33:00;9.65;;;3.90;;
38053;SDS011;23859;50.672;7.164;2023-04-15T02:35:27;8.02;;;4.07;;
38053;SDS011;23859;50.672;7.164;2023-04-15T02:37:53;10.38;;;3.65;;
38053;SDS011;23859;50.672;7.164;2023-04-15T02:40:19;8.80;;;3.40;;
38053;SDS011;23859;50.672;7.164;2023-04-15T02:42:45;7.22;;;3.05;;
38053;SDS011;23859;50.672;7.164;2023-04-15T02:45:11;7.90;;;3.17;;
38053;SDS011;23859;50.672;7.164;2023-04-15T02:47:37;10.57;;;3.58;;
38053;SDS011;23859;50.672;7.164;2023-04-15T02:50:07;6.75;;;2.90;;
38053;SDS011;23859;50.672;7.164;2023-04-15T02:52:35;5.55;;;3.33;;
38053;SDS011;23859;50.672;7.164;2023-04-15T02:55:01;9.50;;;3.22;;
38053;SDS011;23859;50.672;7.164;2023-04-15T02:57:28;7.72;;;3.70;;
38053;SDS011;23859;50.672;7.164;2023-04-15T02:59:54;4.90;;;2.80;;
38053;SDS011;23859;50.672;7.164;2023-04-15T03:02:20;6.80;;;3.22;;
38053;SDS011;23859;50.672;7.164;2023-04-15T03:04:46;7.00;;;3.38;;
38053;SDS011;23859;50.672;7.164;2023-04-15T03:07:13;9.00;;;3.10;;
38053;SDS011;23859;50.672;7.164;2023-04-15T03:09:39;5.90;;;3.58;;
38053;SDS011;23859;50.672;7.164;2023-04-15T03:12:05;7.05;;;2.80;;
38053;SDS011;23859;50.672;7.164;2023-04-15T03:14:31;6.07;;;3.60;;
38053;SDS011;23859;50.672;7.164;2023-04-15T03:16:58;5.90;;;3.33;;
38053;SDS011;23859;50.672;7.164;2023-04-15T03:19:24;7.13;;;3.08;;
38053;SDS011;23859;50.672;7.164;2023-04-15T03:21:50;6.60;;;3.67;;
38053;SDS011;23859;50.672;7.164;2023-04-15T03:24:17;9.30;;;2.50;;
38053;SDS011;23859;50.672;7.164;2023-04-15T03:26:44;7.50;;;3.35;;
38053;SDS011;23859;50.672;7.164;2023-04-15T03:29:10;5.85;;;3.33;;
38053;SDS011;23859;50.672;7.164;2023-04-15T03:31:36;7.85;;;3.60;;
38053;SDS011;23859;50.672;7.164;2023-04-15T03:34:02;10.85;;;3.20;;
38053;SDS011;23859;50.672;7.164;2023-04-15T03:36:28;8.57;;;3.03;;
38053;SDS011;23859;50.672;7.164;2023-04-15T03:38:57;10.02;;;3.40;;
38053;SDS011;23859;50.672;7.164;2023-04-15T03:41:23;8.48;;;3.13;;
38053;SDS011;23859;50.672;7.164;2023-04-15T03:43:49;16.77;;;5.28;;
38053;SDS011;23859;50.672;7.164;2023-04-15T03:46:18;6.68;;;3.15;;
38053;SDS011;23859;50.672;7.164;2023-04-15T03:48:44;10.55;;;3.55;;
38053;SDS011;23859;50.672;7.164;2023-04-15T03:51:11;4.90;;;2.88;;
38053;SDS011;23859;50.672;7.164;2023-04-15T03:53:37;5.15;;;3.00;;
38053;SDS011;23859;50.672;7.164;2023-04-15T03:56:03;6.38;;;2.90;;
38053;SDS011;23859;50.672;7.164;2023-04-15T03:58:29;8.18;;;3.00;;
38053;SDS011;23859;50.672;7.164;2023-04-15T04:00:55;11.15;;;3.15;;
38053;SDS011;23859;50.672;7.164;2023-04-15T04:03:21;8.00;;;3.22;;
38053;SDS011;23859;50.672;7.164;2023-04-15T04:05:47;10.80;;;4.05;;
38053;SDS011;23859;50.672;7.164;2023-04-15T04:08:13;8.25;;;3.95;;
38053;SDS011;23859;50.672;7.164;2023-04-15T04:10:40;10.88;;;4.72;;
38053;SDS011;23859;50.672;7.164;2023-04-15T04:13:06;5.43;;;3.22;;
38053;SDS011;23859;50.672;7.164;2023-04-15T04:15:32;6.32;;;3.25;;
38053;SDS011;23859;50.672;7.164;2023-04-15T04:17:58;7.53;;;3.72;;
38053;SDS011;23859;50.672;7.164;2023-04-15T04:20:25;6.57;;;3.42;;
38053;SDS011;23859;50.672;7.164;2023-04-15T04:22:51;8.57;;;4.03;;
38053;SDS011;23859;50.672;7.164;2023-04-15T04:25:17;12.90;;;3.83;;
38053;SDS011;23859;50.672;7.164;2023-04-15T04:27:43;7.43;;;3.42;;
38053;SDS011;23859;50.672;7.164;2023-04-15T04:30:09;8.75;;;2.92;;
38053;SDS011;23859;50.672;7.164;2023-04-15T04:32:36;9.10;;;3.70;;
38053;SDS011;23859;50.672;7.164;2023-04-15T04:35:02;11.48;;;3.63;;
38053;SDS011;23859;50.672;7.164;2023-04-15T04:37:29;11.02;;;4.00;;
38053;SDS011;23859;50.672;7.164;2023-04-15T04:39:55;9.95;;;3.97;;
38053;SDS011;23859;50.672;7.164;2023-04-15T04:42:21;11.48;;;4.50;;
38053;SDS011;23859;50.672;7.164;2023-04-15T04:44:47;15.88;;;4.28;;
38053;SDS011;23859;50.672;7.164;2023-04-15T04:47:13;12.05;;;4.07;;
38053;SDS011;23859;50.672;7.164;2023-04-15T04:49:39;10.73;;;4.10;;
38053;SDS011;23859;50.672;7.164;2023-04-15T04:52:05;9.68;;;4.55;;
38053;SDS011;23859;50.672;7.164;2023-04-15T04:54:32;13.20;;;3.67;;
38053;SDS011;23859;50.672;7.164;2023-04-15T04:56:58;7.90;;;4.05;;
38053;SDS011;23859;50.672;7.164;2023-04-15T04:59:24;10.10;;;4.13;;
38053;SDS011;23859;50.672;7.164;2023-04-15T05:01:50;13.07;;;3.75;;
38053;SDS011;23859;50.672;7.164;2023-04-15T05:04:16;7.32;;;3.53;;
38053;SDS011;23859;50.672;7.164;2023-04-15T05:06:42;7.50;;;6.18;;
38053;SDS011;23859;50.672;7.164;2023-04-15T05:09:10;8.60;;;4.38;;
38053;SDS011;23859;50.672;7.164;2023-04-15T05:11:36;8.60;;;4.10;;
38053;SDS011;23859;50.672;7.164;2023-04-15T05:14:02;10.52;;;3.85;;
38053;SDS011;23859;50.672;7.164;2023-04-15T05:16:28;16.77;;;3.80;;
38053;SDS011;23859;50.672;7.164;2023-04-15T05:18:54;8.70;;;4.10;;
38053;SDS011;23859;50.672;7.164;2023-04-15T05:21:20;7.78;;;3.97;;
38053;SDS011;23859;50.672;7.164;2023-04-15T05:23:47;14.85;;;5.50;;
38053;SDS011;23859;50.672;7.164;2023-04-15T05:26:13;7.03;;;3.78;;
38053;SDS011;23859;50.672;7.164;2023-04-15T05:28:39;9.18;;;4.07;;
38053;SDS011;23859;50.672;7.164;2023-04-15T05:31:05;9.43;;;4.65;;
38053;SDS011;23859;50.672;7.164;2023-04-15T05:33:31;8.70;;;4.40;;
38053;SDS011;23859;50.672;7.164;2023-04-15T05:35:58;7.13;;;3.75;;
38053;SDS011;23859;50.672;7.164;2023-04-15T05:38:24;11.38;;;4.50;;
38053;SDS011;23859;50.672;7.164;2023-04-15T05:40:50;7.38;;;4.60;;
38053;SDS011;23859;50.672;7.164;2023-04-15T05:43:16;11.40;;;4.78;;
38053;SDS011;23859;50.672;7.164;2023-04-15T05:45:42;7.05;;;4.40;;
38053;SDS011;23859;50.672;7.164;2023-04-15T05:48:08;8.18;;;4.70;;
38053;SDS011;23859;50.672;7.164;2023-04-15T05:50:34;8.65;;;4.90;;
38053;SDS011;23859;50.672;7.164;2023-04-15T05:53:00;9.88;;;4.22;;
38053;SDS011;23859;50.672;7.164;2023-04-15T05:55:26;10.77;;;4.18;;
38053;SDS011;23859;50.672;7.164;2023-04-15T05:57:52;8.98;;;4.50;;
38053;SDS011;23859;50.672;7.164;2023-04-15T06:00:18;9.48;;;4.00;;
38053;SDS011;23859;50.672;7.164;2023-04-15T06:02:45;7.95;;;4.05;;
38053;SDS011;23859;50.672;7.164;2023-04-15T06:05:11;8.73;;;4.18;;
38053;SDS011;23859;50.672;7.164;2023-04-15T06:07:37;13.38;;;4.75;;
38053;SDS011;23859;50.672;7.164;2023-04-15T06:10:03;11.52;;;4.30;;
38053;SDS011;23859;50.672;7.164;2023-04-15T06:12:30;10.27;;;3.78;;
38053;SDS011;23859;50.672;7.164;2023-04-15T06:14:56;6.50;;;3.97;;
38053;SDS011;23859;50.672;7.164;2023-04-15T06:17:22;10.93;;;4.57;;
38053;SDS011;23859;50.672;7.164;2023-04-15T06:19:49;9.73;;;4.20;;
38053;SDS011;23859;50.672;7.164;2023-04-15T06:22:19;7.00;;;4.22;;
38053;SDS011;23859;50.672;7.164;2023-04-15T06:24:47;8.50;;;4.15;;
38053;SDS011;23859;50.672;7.164;2023-04-15T06:27:16;10.50;;;4.20;;
38053;SDS011;23859;50.672;7.164;2023-04-15T06:29:43;7.47;;;4.53;;
38053;SDS011;23859;50.672;7.164;2023-04-15T06:32:09;8.13;;;4.05;;
38053;SDS011;23859;50.672;7.164;2023-04-15T06:34:35;7.30;;;4.18;;
38053;SDS011;23859;50.672;7.164;2023-04-15T06:37:01;6.75;;;3.67;;
38053;SDS011;23859;50.672;7.164;2023-04-15T06:39:27;13.30;;;5.18;;
38053;SDS011;23859;50.672;7.164;2023-04-15T06:41:53;13.18;;;4.95;;
38053;SDS011;23859;50.672;7.164;2023-04-15T06:44:20;9.20;;;4.57;;
38053;SDS011;23859;50.672;7.164;2023-04-15T06:46:46;9.98;;;4.15;;
38053;SDS011;23859;50.672;7.164;2023-04-15T06:49:12;10.13;;;4.40;;
38053;SDS011;23859;50.672;7.164;2023-04-15T06:51:38;11.93;;;4.53;;
38053;SDS011;23859;50.672;7.164;2023-04-15T06:54:04;7.40;;;4.53;;
38053;SDS011;23859;50.672;7.164;2023-04-15T06:58:57;10.25;;;3.80;;
38053;SDS011;23859;50.672;7.164;2023-04-15T07:01:23;8.90;;;4.22;;
38053;SDS011;23859;50.672;7.164;2023-04-15T07:03:49;9.80;;;3.95;;
38053;SDS011;23859;50.672;7.164;2023-04-15T07:06:16;9.52;;;3.65;;
38053;SDS011;23859;50.672;7.164;2023-04-15T07:08:42;7.57;;;3.55;;
38053;SDS011;23859;50.672;7.164;2023-04-15T07:11:08;6.28;;;4.22;;
38053;SDS011;23859;50.672;7.164;2023-04-15T07:13:34;8.45;;;3.85;;
38053;SDS011;23859;50.672;7.164;2023-04-15T07:16:01;9.93;;;3.97;;
38053;SDS011;23859;50.672;7.164;2023-04-15T07:18:27;9.95;;;3.92;;
38053;SDS011;23859;50.672;7.164;2023-04-15T07:20:53;7.80;;;3.55;;
38053;SDS011;23859;50.672;7.164;2023-04-15T07:23:20;9.15;;;4.13;;
38053;SDS011;23859;50.672;7.164;2023-04-15T07:25:46;13.70;;;4.45;;
38053;SDS011;23859;50.672;7.164;2023-04-15T07:28:12;8.70;;;4.15;;
38053;SDS011;23859;50.672;7.164;2023-04-15T07:30:38;6.47;;;3.95;;
38053;SDS011;23859;50.672;7.164;2023-04-15T07:33:05;8.20;;;4.13;;
38053;SDS011;23859;50.672;7.164;2023-04-15T07:35:31;8.82;;;5.43;;
38053;SDS011;23859;50.672;7.164;2023-04-15T07:37:57;11.50;;;4.28;;
38053;SDS011;23859;50.672;7.164;2023-04-15T07:40:23;8.32;;;5.00;;
38053;SDS011;23859;50.672;7.164;2023-04-15T07:42:50;6.65;;;4.70;;
38053;SDS011;23859;50.672;7.164;2023-04-15T07:45:16;8.40;;;4.55;;
38053;SDS011;23859;50.672;7.164;2023-04-15T07:47:42;7.82;;;4.82;;
38053;SDS011;23859;50.672;7.164;2023-04-15T07:50:08;8.35;;;4.70;;
38053;SDS011;23859;50.672;7.164;2023-04-15T07:52:38;11.93;;;5.45;;
38053;SDS011;23859;50.672;7.164;2023-04-15T07:55:05;10.25;;;5.57;;
38053;SDS011;23859;50.672;7.164;2023-04-15T07:57:35;8.38;;;5.25;;
38053;SDS011;23859;50.672;7.164;2023-04-15T08:00:01;7.72;;;4.57;;
38053;SDS011;23859;50.672;7.164;2023-04-15T08:02:31;8.43;;;5.22;;
38053;SDS011;23859;50.672;7.164;2023-04-15T08:04:58;6.97;;;4.85;;
38053;SDS011;23859;50.672;7.164;2023-04-15T08:07:26;10.13;;;5.40;;
38053;SDS011;23859;50.672;7.164;2023-04-15T08:09:52;11.40;;;5.75;;
38053;SDS011;23859;50.672;7.164;2023-04-15T08:12:18;9.95;;;5.68;;
38053;SDS011;23859;50.672;7.164;2023-04-15T08:14:45;9.25;;;5.47;;
38053;SDS011;23859;50.672;7.164;2023-04-15T08:17:11;9.32;;;5.57;;
38053;SDS011;23859;50.672;7.164;2023-04-15T08:19:37;8.85;;;5.55;;
38053;SDS011;23859;50.672;7.164;2023-04-15T08:22:04;9.85;;;5.82;;
38053;SDS011;23859;50.672;7.164;2023-04-15T08:24:30;10.50;;;6.00;;
38053;SDS011;23859;50.672;7.164;2023-04-15T08:26:56;8.85;;;5.22;;
38053;SDS011;23859;50.672;7.164;2023-04-15T08:29:23;10.07;;;5.93;;
38053;SDS011;23859;50.672;7.164;2023-04-15T08:31:49;10.77;;;6.68;;
38053;SDS011;23859;50.672;7.164;2023-04-15T08:34:16;11.63;;;5.60;;
38053;SDS011;23859;50.672;7.164;2023-04-15T08:36:42;9.00;;;5.95;;
38053;SDS011;23859;50.672;7.164;2023-04-15T08:39:08;7.55;;;5.85;;
38053;SDS011;23859;50.672;7.164;2023-04-15T08:41:44;7.63;;;5.90;;
38053;SDS011;23859;50.672;7.164;2023-04-15T08:44:12;13.02;;;6.18;;
38053;SDS011;23859;50.672;7.164;2023-04-15T08:46:39;10.15;;;6.22;;
38053;SDS011;23859;50.672;7.164;2023-04-15T08:49:09;10.18;;;5.82;;
38053;SDS011;23859;50.672;7.164;2023-04-15T08:51:37;7.38;;;5.20;;
38053;SDS011;23859;50.672;7.164;2023-04-15T08:54:04;16.45;;;6.60;;
38053;SDS011;23859;50.672;7.164;2023-04-15T08:56:32;9.98;;;4.82;;
38053;SDS011;23859;50.672;7.164;2023-04-15T08:58:59;12.20;;;5.55;;
38053;SDS011;23859;50.672;7.164;2023-04-15T09:01:25;11.63;;;6.32;;
38053;SDS011;23859;50.672;7.164;2023-04-15T09:03:52;11.40;;;5.70;;
38053;SDS011;23859;50.672;7.164;2023-04-15T09:06:21;7.47;;;5.05;;
38053;SDS011;23859;50.672;7.164;2023-04-15T09:08:48;8.82;;;5.55;;
38053;SDS011;23859;50.672;7.164;2023-04-15T09:11:15;9.98;;;6.05;;
38053;SDS011;23859;50.672;7.164;2023-04-15T09:13:42;15.15;;;5.75;;
38053;SDS011;23859;50.672;7.164;2023-04-15T09:16:08;9.50;;;5.10;;
38053;SDS011;23859;50.672;7.164;2023-04-15T09:18:35;5.68;;;4.15;;
38053;SDS011;23859;50.672;7.164;2023-04-15T09:23:33;12.48;;;5.60;;
38053;SDS011;23859;50.672;7.164;2023-04-15T09:26:00;7.55;;;5.30;;
38053;SDS011;23859;50.672;7.164;2023-04-15T09:28:28;7.93;;;4.63;;
38053;SDS011;23859;50.672;7.164;2023-04-15T09:30:55;5.10;;;3.00;;
38053;SDS011;23859;50.672;7.164;2023-04-15T09:33:25;4.75;;;2.22;;
38053;SDS011;23859;50.672;7.164;2023-04-15T09:35:55;3.13;;;1.70;;
38053;SDS011;23859;50.672;7.164;2023-04-15T09:38:23;8.82;;;1.70;;
38053;SDS011;23859;50.672;7.164;2023-04-15T09:40:49;2.13;;;1.92;;
38053;SDS011;23859;50.672;7.164;2023-04-15T09:43:15;2.00;;;1.50;;
38053;SDS011;23859;50.672;7.164;2023-04-15T09:45:46;2.20;;;1.58;;
38053;SDS011;23859;50.672;7.164;2023-04-15T09:50:52;1.67;;;1.50;;
38053;SDS011;23859;50.672;7.164;2023-04-15T09:53:23;2.78;;;1.80;;
38053;SDS011;23859;50.672;7.164;2023-04-15T09:58:22;4.43;;;1.58;;
38053;SDS011;23859;50.672;7.164;2023-04-15T10:00:51;2.10;;;1.13;;
38053;SDS011;23859;50.672;7.164;2023-04-15T10:03:19;3.03;;;1.50;;
38053;SDS011;23859;50.672;7.164;2023-04-15T10:05:54;1.90;;;1.08;;
38053;SDS011;23859;50.672;7.164;2023-04-15T10:08:22;1.48;;;1.30;;
38053;SDS011;23859;50.672;7.164;2023-04-15T10:10:49;2.00;;;1.70;;
38053;SDS011;23859;50.672;7.164;2023-04-15T10:13:22;2.30;;;1.27;;
38053;SDS011;23859;50.672;7.164;2023-04-15T10:18:44;1.75;;;1.33;;
38053;SDS011;23859;50.672;7.164;2023-04-15T10:21:11;2.20;;;1.67;;
38053;SDS011;23859;50.672;7.164;2023-04-15T10:23:40;2.38;;;1.42;;
38053;SDS011;23859;50.672;7.164;2023-04-15T10:26:07;2.67;;;1.30;;
38053;SDS011;23859;50.672;7.164;2023-04-15T10:28:36;1.75;;;1.38;;
38053;SDS011;23859;50.672;7.164;2023-04-15T10:31:02;2.05;;;1.80;;
38053;SDS011;23859;50.672;7.164;2023-04-15T10:33:30;3.10;;;1.50;;
38053;SDS011;23859;50.672;7.164;2023-04-15T10:35:57;2.88;;;1.98;;
38053;SDS011;23859;50.672;7.164;2023-04-15T10:38:31;2.00;;;1.77;;
38053;SDS011;23859;50.672;7.164;2023-04-15T10:41:11;3.88;;;1.50;;
38053;SDS011;23859;50.672;7.164;2023-04-15T10:43:39;2.67;;;1.30;;
38053;SDS011;23859;50.672;7.164;2023-04-15T10:46:21;4.32;;;1.55;;
38053;SDS011;23859;50.672;7.164;2023-04-15T10:51:38;3.08;;;1.50;;
38053;SDS011;23859;50.672;7.164;2023-04-15T10:54:08;3.00;;;2.05;;
38053;SDS011;23859;50.672;7.164;2023-04-15T10:56:40;1.50;;;1.20;;
38053;SDS011;23859;50.672;7.164;2023-04-15T10:59:08;2.30;;;1.13;;
38053;SDS011;23859;50.672;7.164;2023-04-15T11:01:53;1.77;;;1.40;;
38053;SDS011;23859;50.672;7.164;2023-04-15T11:10:03;4.28;;;1.95;;
38053;SDS011;23859;50.672;7.164;2023-04-15T11:12:49;3.25;;;2.28;;
38053;SDS011;23859;50.672;7.164;2023-04-15T11:15:33;3.95;;;1.92;;
38053;SDS011;23859;50.672;7.164;2023-04-15T11:20:37;2.40;;;2.00;;
38053;SDS011;23859;50.672;7.164;2023-04-15T11:23:05;3.55;;;1.77;;
38053;SDS011;23859;50.672;7.164;2023-04-15T11:25:32;3.20;;;2.35;;
38053;SDS011;23859;50.672;7.164;2023-04-15T11:28:00;2.40;;;2.20;;
38053;SDS011;23859;50.672;7.164;2023-04-15T11:30:27;4.43;;;2.88;;
38053;SDS011;23859;50.672;7.164;2023-04-15T11:33:00;4.25;;;2.75;;
38053;SDS011;23859;50.672;7.164;2023-04-15T11:35:27;3.35;;;2.90;;
38053;SDS011;23859;50.672;7.164;2023-04-15T11:37:54;3.25;;;2.85;;
38053;SDS011;23859;50.672;7.164;2023-04-15T11:40:28;3.50;;;2.92;;
38053;SDS011;23859;50.672;7.164;2023-04-15T11:48:36;3.22;;;2.88;;
38053;SDS011;23859;50.672;7.164;2023-04-15T11:51:06;3.47;;;2.88;;
38053;SDS011;23859;50.672;7.164;2023-04-15T11:53:35;3.47;;;2.60;;
38053;SDS011;23859;50.672;7.164;2023-04-15T11:56:10;3.05;;;2.53;;
38053;SDS011;23859;50.672;7.164;2023-04-15T11:59:02;3.40;;;3.03;;
38053;SDS011;23859;50.672;7.164;2023-04-15T12:03:59;4.22;;;3.20;;
38053;SDS011;23859;50.672;7.164;2023-04-15T12:06:30;3.47;;;3.08;;
38053;SDS011;23859;50.672;7.164;2023-04-15T12:11:44;3.60;;;2.92;;
38053;SDS011;23859;50.672;7.164;2023-04-15T12:14:23;3.17;;;2.53;;
38053;SDS011;23859;50.672;7.164;2023-04-15T12:16:55;3.70;;;2.35;;
38053;SDS011;23859;50.672;7.164;2023-04-15T12:19:44;3.38;;;2.45;;
38053;SDS011;23859;50.672;7.164;2023-04-15T12:22:11;2.72;;;2.50;;
38053;SDS011;23859;50.672;7.164;2023-04-15T12:24:39;2.50;;;2.05;;
38053;SDS011;23859;50.672;7.164;2023-04-15T12:27:08;5.10;;;2.53;;
38053;SDS011;23859;50.672;7.164;2023-04-15T12:29:36;3.08;;;2.08;;
38053;SDS011;23859;50.672;7.164;2023-04-15T12:32:07;2.15;;;1.95;;
38053;SDS011;23859;50.672;7.164;2023-04-15T12:34:38;3.10;;;1.90;;
38053;SDS011;23859;50.672;7.164;2023-04-15T12:37:09;2.85;;;1.95;;
38053;SDS011;23859;50.672;7.164;2023-04-15T12:39:37;2.63;;;1.98;;
38053;SDS011;23859;50.672;7.164;2023-04-15T12:42:05;3.20;;;2.15;;
38053;SDS011;23859;50.672;7.164;2023-04-15T12:44:32;2.65;;;2.40;;
38053;SDS011;23859;50.672;7.164;2023-04-15T12:46:59;2.15;;;1.95;;
38053;SDS011;23859;50.672;7.164;2023-04-15T12:49:26;2.15;;;1.92;;
38053;SDS011;23859;50.672;7.164;2023-04-15T12:51:53;2.60;;;2.38;;
38053;SDS011;23859;50.672;7.164;2023-04-15T12:54:20;3.08;;;2.33;;
38053;SDS011;23859;50.672;7.164;2023-04-15T12:56:46;2.67;;;2.33;;
38053;SDS011;23859;50.672;7.164;2023-04-15T12:59:14;2.38;;;2.10;;
38053;SDS011;23859;50.672;7.164;2023-04-15T13:01:42;2.67;;;2.22;;
38053;SDS011;23859;50.672;7.164;2023-04-15T13:04:09;2.97;;;2.40;;
38053;SDS011;23859;50.672;7.164;2023-04-15T13:06:35;2.60;;;2.40;;
38053;SDS011;23859;50.672;7.164;2023-04-15T13:09:02;2.88;;;2.60;;
38053;SDS011;23859;50.672;7.164;2023-04-15T13:11:29;2.75;;;2.33;;
38053;SDS011;23859;50.672;7.164;2023-04-15T13:14:05;3.22;;;2.83;;
38053;SDS011;23859;50.672;7.164;2023-04-15T13:16:32;3.40;;;2.72;;
38053;SDS011;23859;50.672;7.164;2023-04-15T13:19:00;3.08;;;2.78;;
38053;SDS011;23859;50.672;7.164;2023-04-15T13:21:27;6.63;;;3.00;;
38053;SDS011;23859;50.672;7.164;2023-04-15T13:23:53;3.50;;;3.00;;
38053;SDS011;23859;50.672;7.164;2023-04-15T13:26:19;3.45;;;3.15;;
38053;SDS011;23859;50.672;7.164;2023-04-15T13:28:45;3.45;;;3.05;;
38053;SDS011;23859;50.672;7.164;2023-04-15T13:31:12;4.95;;;3.00;;
38053;SDS011;23859;50.672;7.164;2023-04-15T13:33:38;3.35;;;2.90;;
38053;SDS011;23859;50.672;7.164;2023-04-15T13:36:04;2.75;;;2.38;;
38053;SDS011;23859;50.672;7.164;2023-04-15T13:38:30;4.15;;;3.72;;
38053;SDS011;23859;50.672;7.164;2023-04-15T13:40:57;4.50;;;2.92;;
38053;SDS011;23859;50.672;7.164;2023-04-15T13:43:23;4.13;;;3.17;;
38053;SDS011;23859;50.672;7.164;2023-04-15T13:45:49;6.10;;;3.10;;
38053;SDS011;23859;50.672;7.164;2023-04-15T13:48:15;4.65;;;3.25;;
38053;SDS011;23859;50.672;7.164;2023-04-15T13:50:41;3.92;;;3.25;;
38053;SDS011;23859;50.672;7.164;2023-04-15T13:53:09;4.05;;;3.22;;
38053;SDS011;23859;50.672;7.164;2023-04-15T13:55:36;3.85;;;3.45;;
38053;SDS011;23859;50.672;7.164;2023-04-15T13:58:05;6.45;;;3.70;;
38053;SDS011;23859;50.672;7.164;2023-04-15T14:00:32;4.72;;;3.95;;
38053;SDS011;23859;50.672;7.164;2023-04-15T14:02:58;5.28;;;4.15;;
38053;SDS011;23859;50.672;7.164;2023-04-15T14:05:24;6.40;;;4.70;;
38053;SDS011;23859;50.672;7.164;2023-04-15T14:07:50;5.00;;;4.45;;
38053;SDS011;23859;50.672;7.164;2023-04-15T14:10:16;6.68;;;5.30;;
38053;SDS011;23859;50.672;7.164;2023-04-15T14:12:42;6.32;;;5.18;;
38053;SDS011;23859;50.672;7.164;2023-04-15T14:15:08;7.18;;;5.68;;
38053;SDS011;23859;50.672;7.164;2023-04-15T14:17:34;7.47;;;6.00;;
38053;SDS011;23859;50.672;7.164;2023-04-15T14:20:01;8.90;;;6.45;;
38053;SDS011;23859;50.672;7.164;2023-04-15T14:22:27;8.50;;;6.68;;
38053;SDS011;23859;50.672;7.164;2023-04-15T14:24:53;8.48;;;6.68;;
38053;SDS011;23859;50.672;7.164;2023-04-15T14:27:19;7.03;;;6.28;;
38053;SDS011;23859;50.672;7.164;2023-04-15T14:29:45;8.02;;;6.88;;
38053;SDS011;23859;50.672;7.164;2023-04-15T14:32:12;8.38;;;7.18;;
38053;SDS011;23859;50.672;7.164;2023-04-15T14:34:38;8.10;;;7.00;;
38053;SDS011;23859;50.672;7.164;2023-04-15T14:37:04;8.05;;;7.15;;
38053;SDS011;23859;50.672;7.164;2023-04-15T14:39:30;8.38;;;7.55;;
38053;SDS011;23859;50.672;7.164;2023-04-15T14:41:57;9.40;;;8.35;;
38053;SDS011;23859;50.672;7.164;2023-04-15T14:44:23;9.27;;;7.85;;
38053;SDS011;23859;50.672;7.164;2023-04-15T14:46:49;9.10;;;7.68;;
38053;SDS011;23859;50.672;7.164;2023-04-15T14:49:16;9.13;;;8.23;;
38053;SDS011;23859;50.672;7.164;2023-04-15T14:51:42;9.63;;;8.55;;
38053;SDS011;23859;50.672;7.164;2023-04-15T14:54:08;10.95;;;8.38;;
38053;SDS011;23859;50.672;7.164;2023-04-15T14:56:34;9.32;;;8.30;;
38053;SDS011;23859;50.672;7.164;2023-04-15T14:59:00;8.85;;;8.05;;
38053;SDS011;23859;50.672;7.164;2023-04-15T15:01:26;8.77;;;7.30;;
38053;SDS011;23859;50.672;7.164;2023-04-15T15:03:53;9.98;;;7.43;;
38053;SDS011;23859;50.672;7.164;2023-04-15T15:06:20;9.10;;;7.55;;
38053;SDS011;23859;50.672;7.164;2023-04-15T15:08:47;11.10;;;6.20;;
38053;SDS011;23859;50.672;7.164;2023-04-15T15:11:13;8.68;;;6.13;;
38053;SDS011;23859;50.672;7.164;2023-04-15T15:13:40;7.55;;;6.07;;
38053;SDS011;23859;50.672;7.164;2023-04-15T15:16:06;8.05;;;6.88;;
38053;SDS011;23859;50.672;7.164;2023-04-15T15:18:32;7.45;;;6.57;;
38053;SDS011;23859;50.672;7.164;2023-04-15T15:20:59;11.68;;;7.57;;